createdAt,value
2019-02-04T00:00:25.007Z,1.85
2019-02-04T00:01:24.979Z,1.86
2019-02-04T00:02:24.959Z,1.85
2019-02-04T00:03:24.950Z,1.79
2019-02-04T00:04:24.893Z,1.82
2019-02-04T00:05:24.879Z,1.82
2019-02-04T00:06:24.840Z,1.85
2019-02-04T00:07:24.813Z,1.84
2019-02-04T00:08:24.783Z,1.84
2019-02-04T00:09:24.772Z,1.76
2019-02-04T00:10:24.733Z,1.75
2019-02-04T00:11:24.706Z,1.84
2019-02-04T00:12:24.676Z,1.75
2019-02-04T00:13:24.651Z,1.71
2019-02-04T00:14:24.616Z,1.86
2019-02-04T00:15:24.587Z,1.74
2019-02-04T00:16:24.568Z,1.82
2019-02-04T00:17:24.530Z,1.71
2019-02-04T00:18:24.585Z,1.84
2019-02-04T00:19:24.482Z,1.76
2019-02-04T00:20:24.456Z,1.70
2019-02-04T00:21:24.428Z,1.82
2019-02-04T00:22:24.400Z,1.75
2019-02-04T00:23:24.369Z,1.81
2019-02-04T00:24:24.334Z,1.68
2019-02-04T00:25:24.317Z,1.85
2019-02-04T00:26:24.291Z,1.78
2019-02-04T00:27:24.249Z,1.79
2019-02-04T00:28:24.221Z,1.95
2019-02-04T00:29:24.203Z,1.89
2019-02-04T00:30:24.167Z,1.79
2019-02-04T00:31:24.152Z,1.76
2019-02-04T00:32:24.109Z,1.71
2019-02-04T00:33:24.086Z,1.85
2019-02-04T00:34:24.054Z,1.86
2019-02-04T00:35:24.040Z,1.79
2019-02-04T00:36:23.995Z,1.79
2019-02-04T00:37:23.968Z,1.76
2019-02-04T00:38:23.939Z,1.75
2019-02-04T00:39:23.915Z,1.78
2019-02-04T00:40:23.885Z,1.71
2019-02-04T00:41:23.857Z,1.66
2019-02-04T00:42:23.830Z,1.67
2019-02-04T00:43:23.825Z,1.68
2019-02-04T00:44:23.773Z,1.71
2019-02-04T00:45:23.774Z,1.74
2019-02-04T00:46:23.717Z,1.75
2019-02-04T00:47:23.688Z,1.71
2019-02-04T00:48:23.662Z,1.64
2019-02-04T00:49:23.649Z,1.67
2019-02-04T00:50:23.602Z,1.70
2019-02-04T00:51:23.576Z,1.74
2019-02-04T00:52:23.556Z,1.63
2019-02-04T00:53:23.535Z,1.70
2019-02-04T00:54:23.491Z,1.70
2019-02-04T00:55:23.466Z,1.70
2019-02-04T00:56:23.437Z,1.68
2019-02-04T00:57:23.408Z,1.74
2019-02-04T00:58:23.383Z,1.71
2019-02-04T00:59:23.502Z,1.79
2019-02-04T01:00:23.321Z,1.64
2019-02-04T01:01:23.294Z,1.70
2019-02-04T01:02:23.267Z,1.71
2019-02-04T01:03:23.246Z,1.74
2019-02-04T01:04:23.222Z,1.67
2019-02-04T01:05:23.183Z,1.70
2019-02-04T01:06:23.155Z,1.67
2019-02-04T01:07:23.134Z,1.58
2019-02-04T01:08:23.096Z,1.70
2019-02-04T01:09:23.077Z,1.60
2019-02-04T01:10:23.062Z,1.57
2019-02-04T01:11:23.013Z,1.57
2019-02-04T01:12:22.986Z,1.60
2019-02-04T01:13:22.957Z,1.57
2019-02-04T01:14:22.928Z,1.57
2019-02-04T01:15:22.899Z,1.56
2019-02-04T01:16:22.878Z,1.58
2019-02-04T01:17:22.852Z,1.58
2019-02-04T01:18:22.815Z,1.58
2019-02-04T01:19:22.799Z,1.56
2019-02-04T01:20:22.877Z,1.60
2019-02-04T01:21:22.740Z,1.53
2019-02-04T01:22:22.703Z,1.56
2019-02-04T01:23:22.683Z,1.58
2019-02-04T01:24:22.689Z,1.63
2019-02-04T01:25:22.619Z,1.57
2019-02-04T01:26:22.591Z,1.57
2019-02-04T01:27:22.563Z,1.56
2019-02-04T01:28:22.537Z,1.56
2019-02-04T01:29:22.505Z,1.56
2019-02-04T01:30:22.477Z,1.56
2019-02-04T01:31:22.450Z,1.56
2019-02-04T01:32:22.421Z,1.46
2019-02-04T01:33:22.402Z,1.52
2019-02-04T01:34:22.366Z,1.60
2019-02-04T01:35:22.376Z,1.45
2019-02-04T01:36:22.307Z,1.45
2019-02-04T01:37:22.280Z,1.46
2019-02-04T01:38:22.263Z,1.45
2019-02-04T01:39:22.224Z,1.46
2019-02-04T01:40:22.194Z,1.45
2019-02-04T01:41:22.167Z,1.46
2019-02-04T01:42:22.138Z,1.48
2019-02-04T01:43:22.111Z,1.39
2019-02-04T01:44:22.082Z,1.45
2019-02-04T01:45:22.053Z,1.48
2019-02-04T01:46:22.026Z,1.49
2019-02-04T01:47:22.000Z,1.45
2019-02-04T01:48:21.971Z,1.43
2019-02-04T01:49:21.954Z,1.45
2019-02-04T01:50:21.950Z,1.50
2019-02-04T01:51:21.907Z,1.42
2019-02-04T01:52:21.857Z,1.48
2019-02-04T01:53:21.830Z,1.42
2019-02-04T01:54:21.810Z,1.40
2019-02-04T01:55:21.772Z,1.48
2019-02-04T01:56:21.752Z,1.36
2019-02-04T01:57:21.717Z,1.38
2019-02-04T01:58:21.700Z,1.46
2019-02-04T01:59:21.658Z,1.45
2019-02-04T02:00:21.630Z,1.45
2019-02-04T02:01:21.600Z,1.50
2019-02-04T02:02:21.576Z,1.43
2019-02-04T02:03:21.545Z,1.57
2019-02-04T02:04:21.515Z,1.45
2019-02-04T02:05:21.491Z,1.43
2019-02-04T02:06:21.549Z,1.43
2019-02-04T02:07:21.441Z,1.49
2019-02-04T02:08:21.402Z,1.40
2019-02-04T02:09:21.374Z,1.43
2019-02-04T02:10:21.362Z,1.40
2019-02-04T02:11:21.332Z,1.46
2019-02-04T02:12:21.348Z,1.46
2019-02-04T02:13:21.260Z,1.43
2019-02-04T02:14:21.235Z,1.49
2019-02-04T02:15:21.211Z,1.43
2019-02-04T02:16:21.177Z,1.50
2019-02-04T02:17:26.549Z,1.43
2019-02-04T02:18:21.120Z,1.45
2019-02-04T02:19:21.091Z,1.45
2019-02-04T02:20:21.070Z,1.53
2019-02-04T02:21:21.034Z,1.46
2019-02-04T02:22:21.007Z,1.49
2019-02-04T02:23:21.031Z,1.46
2019-02-04T02:24:20.949Z,1.43
2019-02-04T02:25:20.920Z,1.42
2019-02-04T02:26:20.891Z,1.39
2019-02-04T02:27:20.864Z,1.43
2019-02-04T02:28:20.847Z,1.42
2019-02-04T02:29:20.806Z,1.45
2019-02-04T02:30:20.939Z,1.32
2019-02-04T02:31:20.752Z,1.36
2019-02-04T02:32:20.720Z,1.30
2019-02-04T02:33:20.706Z,1.45
2019-02-04T02:34:20.673Z,1.43
2019-02-04T02:35:20.637Z,1.39
2019-02-04T02:36:20.609Z,1.43
2019-02-04T02:37:20.580Z,1.45
2019-02-04T02:38:20.560Z,1.45
2019-02-04T02:39:20.522Z,1.34
2019-02-04T02:40:20.501Z,1.30
2019-02-04T02:41:20.482Z,1.43
2019-02-04T02:42:20.437Z,1.39
2019-02-04T02:43:20.408Z,1.42
2019-02-04T02:44:20.380Z,1.42
2019-02-04T02:45:20.353Z,1.40
2019-02-04T02:46:20.333Z,1.34
2019-02-04T02:47:20.295Z,1.30
2019-02-04T02:48:20.283Z,1.38
2019-02-04T02:49:20.238Z,1.34
2019-02-04T02:50:20.219Z,1.34
2019-02-04T02:51:20.181Z,1.31
2019-02-04T02:52:20.151Z,1.42
2019-02-04T02:53:20.125Z,1.28
2019-02-04T02:54:20.102Z,1.34
2019-02-04T02:55:20.069Z,1.34
2019-02-04T02:56:20.044Z,1.31
2019-02-04T02:57:20.011Z,1.27
2019-02-04T02:58:19.985Z,1.36
2019-02-04T02:59:19.954Z,1.32
2019-02-04T03:00:20.084Z,1.27
2019-02-04T03:01:19.896Z,1.31
2019-02-04T03:02:19.868Z,1.31
2019-02-04T03:03:19.839Z,1.24
2019-02-04T03:04:19.814Z,1.31
2019-02-04T03:05:19.783Z,1.22
2019-02-04T03:06:19.755Z,1.28
2019-02-04T03:07:19.733Z,1.25
2019-02-04T03:08:19.698Z,1.25
2019-02-04T03:09:19.672Z,1.27
2019-02-04T03:10:19.639Z,1.21
2019-02-04T03:11:19.613Z,1.18
2019-02-04T03:12:19.584Z,1.24
2019-02-04T03:13:19.555Z,1.27
2019-02-04T03:14:19.641Z,1.28
2019-02-04T03:15:19.507Z,1.21
2019-02-04T03:16:19.479Z,1.28
2019-02-04T03:17:19.441Z,1.22
2019-02-04T03:18:19.412Z,1.18
2019-02-04T03:19:19.393Z,1.16
2019-02-04T03:20:19.380Z,1.21
2019-02-04T03:21:19.334Z,1.21
2019-02-04T03:22:19.302Z,1.14
2019-02-04T03:23:19.270Z,1.14
2019-02-04T03:24:19.241Z,1.18
2019-02-04T03:25:19.220Z,1.16
2019-02-04T03:26:19.186Z,1.09
2019-02-04T03:27:19.157Z,1.18
2019-02-04T03:28:19.127Z,1.18
2019-02-04T03:29:19.098Z,1.20
2019-02-04T03:30:19.215Z,1.20
2019-02-04T03:31:19.045Z,1.16
2019-02-04T03:32:19.014Z,1.20
2019-02-04T03:33:18.989Z,1.20
2019-02-04T03:34:18.961Z,1.12
2019-02-04T03:35:18.930Z,1.13
2019-02-04T03:36:18.897Z,1.18
2019-02-04T03:37:18.872Z,1.14
2019-02-04T03:38:18.842Z,1.10
2019-02-04T03:39:18.863Z,1.12
2019-02-04T03:40:18.783Z,1.02
2019-02-04T03:41:18.754Z,1.10
2019-02-04T03:42:18.728Z,1.24
2019-02-04T03:43:18.696Z,1.07
2019-02-04T03:44:18.669Z,1.13
2019-02-04T03:45:18.643Z,1.07
2019-02-04T03:46:18.614Z,1.02
2019-02-04T03:47:18.582Z,1.13
2019-02-04T03:48:18.554Z,1.10
2019-02-04T03:49:18.530Z,1.18
2019-02-04T03:50:18.498Z,1.10
2019-02-04T03:51:18.469Z,1.06
2019-02-04T03:52:18.437Z,1.09
2019-02-04T03:53:18.415Z,1.09
2019-02-04T03:54:18.384Z,1.18
2019-02-04T03:55:18.352Z,1.14
2019-02-04T03:56:18.330Z,1.09
2019-02-04T03:57:18.302Z,1.06
2019-02-04T03:58:18.267Z,1.12
2019-02-04T03:59:18.239Z,1.07
2019-02-04T04:00:18.207Z,1.24
2019-02-04T04:01:18.181Z,1.13
2019-02-04T04:02:18.154Z,1.16
2019-02-04T04:03:18.126Z,1.12
2019-02-04T04:04:18.095Z,1.13
2019-02-04T04:05:18.091Z,1.18
2019-02-04T04:06:18.038Z,1.18
2019-02-04T04:07:18.008Z,1.16
2019-02-04T04:08:17.997Z,1.16
2019-02-04T04:09:17.947Z,1.20
2019-02-04T04:10:17.919Z,1.16
2019-02-04T04:11:17.891Z,1.20
2019-02-04T04:12:17.864Z,1.14
2019-02-04T04:13:17.835Z,1.20
2019-02-04T04:14:17.803Z,1.21
2019-02-04T04:15:17.783Z,1.20
2019-02-04T04:16:17.746Z,1.21
2019-02-04T04:17:17.717Z,1.27
2019-02-04T04:18:17.697Z,1.20
2019-02-04T04:19:17.663Z,1.14
2019-02-04T04:20:17.631Z,1.13
2019-02-04T04:21:17.660Z,1.21
2019-02-04T04:22:17.575Z,1.22
2019-02-04T04:23:17.554Z,1.21
2019-02-04T04:24:17.515Z,1.22
2019-02-04T04:25:17.496Z,1.22
2019-02-04T04:26:17.457Z,1.25
2019-02-04T04:27:17.506Z,1.18
2019-02-04T04:28:17.398Z,1.22
2019-02-04T04:29:17.370Z,1.25
2019-02-04T04:30:17.342Z,1.27
2019-02-04T04:31:17.314Z,1.22
2019-02-04T04:32:17.285Z,1.27
2019-02-04T04:33:17.265Z,1.25
2019-02-04T04:34:17.226Z,1.27
2019-02-04T04:35:17.197Z,1.21
2019-02-04T04:36:17.170Z,1.27
2019-02-04T04:37:17.146Z,1.27
2019-02-04T04:38:17.112Z,1.31
2019-02-04T04:39:17.083Z,1.34
2019-02-04T04:40:17.054Z,1.30
2019-02-04T04:41:17.030Z,1.28
2019-02-04T04:42:17.005Z,1.34
2019-02-04T04:43:16.971Z,1.34
2019-02-04T04:44:16.940Z,1.31
2019-02-04T04:45:16.910Z,1.31
2019-02-04T04:46:16.882Z,1.31
2019-02-04T04:47:16.853Z,1.31
2019-02-04T04:48:26.326Z,1.31
2019-02-04T04:49:16.796Z,1.30
2019-02-04T04:50:16.768Z,1.28
2019-02-04T04:51:16.738Z,1.27
2019-02-04T04:52:16.708Z,1.25
2019-02-04T04:53:16.678Z,1.30
2019-02-04T04:54:16.650Z,1.30
2019-02-04T04:55:16.623Z,1.30
2019-02-04T04:56:16.596Z,1.30
2019-02-04T04:57:16.565Z,1.34
2019-02-04T04:58:16.534Z,1.32
2019-02-04T04:59:16.508Z,1.31
2019-02-04T05:00:16.483Z,1.32
2019-02-04T05:01:16.446Z,1.30
2019-02-04T05:02:16.419Z,1.32
2019-02-04T05:03:16.390Z,1.30
2019-02-04T05:04:16.360Z,1.39
2019-02-04T05:05:16.331Z,1.42
2019-02-04T05:06:16.301Z,1.30
2019-02-04T05:07:16.273Z,1.34
2019-02-04T05:08:16.243Z,1.32
2019-02-04T05:09:16.224Z,1.38
2019-02-04T05:10:16.211Z,1.28
2019-02-04T05:11:16.158Z,1.32
2019-02-04T05:12:16.129Z,1.34
2019-02-04T05:13:16.102Z,1.31
2019-02-04T05:14:16.072Z,1.32
2019-02-04T05:15:16.130Z,1.36
2019-02-04T05:16:16.012Z,1.30
2019-02-04T05:17:15.984Z,1.32
2019-02-04T05:18:15.965Z,1.27
2019-02-04T05:19:15.930Z,1.39
2019-02-04T05:20:15.897Z,1.34
2019-02-04T05:21:15.868Z,1.28
2019-02-04T05:22:15.849Z,1.31
2019-02-04T05:23:17.326Z,1.36
2019-02-04T05:24:15.783Z,1.34
2019-02-04T05:25:15.755Z,1.36
2019-02-04T05:26:15.723Z,1.36
2019-02-04T05:27:15.695Z,1.36
2019-02-04T05:28:15.675Z,1.34
2019-02-04T05:29:15.638Z,1.38
2019-02-04T05:30:15.610Z,1.40
2019-02-04T05:31:15.579Z,1.38
2019-02-04T05:32:15.549Z,1.63
2019-02-04T05:33:15.522Z,1.56
2019-02-04T05:34:15.513Z,1.46
2019-02-04T05:35:15.473Z,1.46
2019-02-04T05:36:15.433Z,1.45
2019-02-04T05:37:15.411Z,1.45
2019-02-04T05:38:15.375Z,1.38
2019-02-04T05:39:15.346Z,1.45
2019-02-04T05:40:15.320Z,1.42
2019-02-04T05:41:15.295Z,1.36
2019-02-04T05:42:15.260Z,1.40
2019-02-04T05:43:15.238Z,1.42
2019-02-04T05:44:15.203Z,1.40
2019-02-04T05:45:15.330Z,1.46
2019-02-04T05:46:15.145Z,1.48
2019-02-04T05:47:15.116Z,1.43
2019-02-04T05:48:15.087Z,1.39
2019-02-04T05:49:15.057Z,1.45
2019-02-04T05:50:17.211Z,1.53
2019-02-04T05:51:15.001Z,1.53
2019-02-04T05:52:14.971Z,1.56
2019-02-04T05:53:14.942Z,1.52
2019-02-04T05:54:14.922Z,1.57
2019-02-04T05:55:14.886Z,1.57
2019-02-04T05:56:14.856Z,1.56
2019-02-04T05:57:14.826Z,1.52
2019-02-04T05:58:14.799Z,1.56
2019-02-04T05:59:14.772Z,1.48
2019-02-04T06:00:14.738Z,1.57
2019-02-04T06:01:14.711Z,1.56
2019-02-04T06:02:14.683Z,1.61
2019-02-04T06:03:14.652Z,1.56
2019-02-04T06:04:14.632Z,1.56
2019-02-04T06:05:14.595Z,1.57
2019-02-04T06:06:14.571Z,1.53
2019-02-04T06:07:15.438Z,1.58
2019-02-04T06:08:14.508Z,1.53
2019-02-04T06:09:14.479Z,1.52
2019-02-04T06:10:14.451Z,1.53
2019-02-04T06:11:14.422Z,1.48
2019-02-04T06:12:14.391Z,1.46
2019-02-04T06:13:14.361Z,1.48
2019-02-04T06:14:14.334Z,1.39
2019-02-04T06:15:14.308Z,1.40
2019-02-04T06:16:14.283Z,1.53
2019-02-04T06:17:14.256Z,1.42
2019-02-04T06:18:14.227Z,1.48
2019-02-04T06:19:14.193Z,1.53
2019-02-04T06:20:14.160Z,1.52
2019-02-04T06:21:14.135Z,1.50
2019-02-04T06:22:14.102Z,1.53
2019-02-04T06:23:14.075Z,1.57
2019-02-04T06:24:14.043Z,1.46
2019-02-04T06:25:14.016Z,1.53
2019-02-04T06:26:13.989Z,1.52
2019-02-04T06:27:13.968Z,1.56
2019-02-04T06:28:13.930Z,1.57
2019-02-04T06:29:13.902Z,1.57
2019-02-04T06:30:13.870Z,1.57
2019-02-04T06:31:13.841Z,1.50
2019-02-04T06:32:13.828Z,1.53
2019-02-04T06:33:13.788Z,1.58
2019-02-04T06:34:13.753Z,1.61
2019-02-04T06:35:13.724Z,1.52
2019-02-04T06:36:13.695Z,1.58
2019-02-04T06:37:13.677Z,1.64
2019-02-04T06:38:13.640Z,1.58
2019-02-04T06:39:13.613Z,1.53
2019-02-04T06:40:13.579Z,1.56
2019-02-04T06:41:13.551Z,1.57
2019-02-04T06:42:13.523Z,1.56
2019-02-04T06:43:13.500Z,1.56
2019-02-04T06:44:13.471Z,1.58
2019-02-04T06:45:13.440Z,1.64
2019-02-04T06:46:13.405Z,1.66
2019-02-04T06:47:13.383Z,1.63
2019-02-04T06:48:13.348Z,1.68
2019-02-04T06:49:13.319Z,1.68
2019-02-04T06:50:13.290Z,1.64
2019-02-04T06:51:13.261Z,1.67
2019-02-04T06:52:13.231Z,1.68
2019-02-04T06:53:13.202Z,1.67
2019-02-04T06:54:13.187Z,1.64
2019-02-04T06:55:13.145Z,1.66
2019-02-04T06:56:13.116Z,1.67
2019-02-04T06:57:13.088Z,1.67
2019-02-04T06:58:13.057Z,1.70
2019-02-04T06:59:13.029Z,1.71
2019-02-04T07:00:13.005Z,1.68
2019-02-04T07:01:12.971Z,1.68
2019-02-04T07:02:12.943Z,1.79
2019-02-04T07:03:12.927Z,1.67
2019-02-04T07:04:12.885Z,1.68
2019-02-04T07:05:12.865Z,1.66
2019-02-04T07:06:12.831Z,1.76
2019-02-04T07:07:15.085Z,1.75
2019-02-04T07:08:12.767Z,1.75
2019-02-04T07:09:12.740Z,1.63
2019-02-04T07:10:12.709Z,1.74
2019-02-04T07:11:12.682Z,1.70
2019-02-04T07:12:12.652Z,1.79
2019-02-04T07:13:12.622Z,1.70
2019-02-04T07:14:12.595Z,1.68
2019-02-04T07:15:12.567Z,1.68
2019-02-04T07:16:12.538Z,1.76
2019-02-04T07:17:12.518Z,1.82
2019-02-04T07:18:12.534Z,1.75
2019-02-04T07:19:23.322Z,1.71
2019-02-04T07:20:12.422Z,1.71
2019-02-04T07:21:12.394Z,1.76
2019-02-04T07:22:12.365Z,1.79
2019-02-04T07:23:12.336Z,1.78
2019-02-04T07:24:12.306Z,1.89
2019-02-04T07:25:12.294Z,1.79
2019-02-04T07:26:12.250Z,1.81
2019-02-04T07:27:12.231Z,1.82
2019-02-04T07:28:12.193Z,1.86
2019-02-04T07:29:12.180Z,1.85
2019-02-04T07:30:12.145Z,1.93
2019-02-04T07:31:12.106Z,1.93
2019-02-04T07:32:12.091Z,2.00
2019-02-04T07:33:12.051Z,2.03
2019-02-04T07:34:12.020Z,2.03
2019-02-04T07:35:12.001Z,2.05
2019-02-04T07:36:11.963Z,2.01
2019-02-04T07:37:11.935Z,2.01
2019-02-04T07:38:11.923Z,2.08
2019-02-04T07:39:11.877Z,2.14
2019-02-04T07:40:11.849Z,2.18
2019-02-04T07:41:14.526Z,2.21
2019-02-04T07:42:11.793Z,2.12
2019-02-04T07:43:11.772Z,2.22
2019-02-04T07:44:11.743Z,2.25
2019-02-04T07:45:11.707Z,2.26
2019-02-04T07:46:11.678Z,2.23
2019-02-04T07:47:11.652Z,2.32
2019-02-04T07:48:11.621Z,2.28
2019-02-04T07:49:11.599Z,2.26
2019-02-04T07:50:11.565Z,2.28
2019-02-04T07:51:11.542Z,2.25
2019-02-04T07:52:11.515Z,2.23
2019-02-04T07:53:11.478Z,2.25
2019-02-04T07:54:11.453Z,2.23
2019-02-04T07:55:11.425Z,2.26
2019-02-04T07:56:11.403Z,2.23
2019-02-04T07:57:11.367Z,2.26
2019-02-04T07:58:11.338Z,2.36
2019-02-04T07:59:11.311Z,2.26
2019-02-04T08:00:11.297Z,2.40
2019-02-04T08:01:11.302Z,2.39
2019-02-04T08:02:11.225Z,2.32
2019-02-04T08:03:11.199Z,2.36
2019-02-04T08:04:11.171Z,2.39
2019-02-04T08:05:11.142Z,2.44
2019-02-04T08:06:11.116Z,2.52
2019-02-04T08:07:11.087Z,2.50
2019-02-04T08:08:11.059Z,2.51
2019-02-04T08:09:11.028Z,2.55
2019-02-04T08:10:11.010Z,2.58
2019-02-04T08:11:10.978Z,2.62
2019-02-04T08:12:10.944Z,2.55
2019-02-04T08:13:10.919Z,2.62
2019-02-04T08:14:10.889Z,2.62
2019-02-04T08:15:10.863Z,2.64
2019-02-04T08:16:10.853Z,2.55
2019-02-04T08:17:10.809Z,2.75
2019-02-04T08:18:10.783Z,2.64
2019-02-04T08:19:10.751Z,2.58
2019-02-04T08:20:10.723Z,2.57
2019-02-04T08:21:10.711Z,2.59
2019-02-04T08:22:10.669Z,2.73
2019-02-04T08:23:10.642Z,2.85
2019-02-04T08:24:10.620Z,2.79
2019-02-04T08:25:10.587Z,2.76
2019-02-04T08:26:10.556Z,2.83
2019-02-04T08:27:10.529Z,2.83
2019-02-04T08:28:10.502Z,2.76
2019-02-04T08:29:10.475Z,2.82
2019-02-04T08:30:10.446Z,2.87
2019-02-04T08:31:10.421Z,2.77
2019-02-04T08:32:10.392Z,2.91
2019-02-04T08:33:10.366Z,2.90
2019-02-04T08:34:10.338Z,2.82
2019-02-04T08:35:10.310Z,2.82
2019-02-04T08:36:10.282Z,3.00
2019-02-04T08:37:10.259Z,2.93
2019-02-04T08:38:10.232Z,2.91
2019-02-04T08:39:10.201Z,2.95
2019-02-04T08:40:10.171Z,3.00
2019-02-04T08:41:10.150Z,3.01
2019-02-04T08:42:10.119Z,3.09
2019-02-04T08:43:10.092Z,3.00
2019-02-04T08:44:10.088Z,2.97
2019-02-04T08:45:10.037Z,2.94
2019-02-04T08:46:10.011Z,3.01
2019-02-04T08:47:09.983Z,3.01
2019-02-04T08:48:09.954Z,2.94
2019-02-04T08:49:09.930Z,2.95
2019-02-04T08:50:09.913Z,2.97
2019-02-04T08:51:09.885Z,3.05
2019-02-04T08:52:09.854Z,3.09
2019-02-04T08:53:09.829Z,3.03
2019-02-04T08:54:09.794Z,3.13
2019-02-04T08:55:09.776Z,3.15
2019-02-04T08:56:09.737Z,3.16
2019-02-04T08:57:09.711Z,3.12
2019-02-04T08:58:09.686Z,3.15
2019-02-04T08:59:09.666Z,3.13
2019-02-04T09:00:09.630Z,3.26
2019-02-04T09:01:09.607Z,3.22
2019-02-04T09:02:09.575Z,3.43
2019-02-04T09:03:09.552Z,3.36
2019-02-04T09:04:09.536Z,3.33
2019-02-04T09:05:09.504Z,3.34
2019-02-04T09:06:09.477Z,3.56
2019-02-04T09:07:09.441Z,3.59
2019-02-04T09:08:09.413Z,3.55
2019-02-04T09:09:09.394Z,3.56
2019-02-04T09:10:09.360Z,3.64
2019-02-04T09:11:09.337Z,3.64
2019-02-04T09:12:09.306Z,3.73
2019-02-04T09:13:09.387Z,3.73
2019-02-04T09:14:09.259Z,3.71
2019-02-04T09:15:09.229Z,3.74
2019-02-04T09:16:09.200Z,3.76
2019-02-04T09:17:09.176Z,3.76
2019-02-04T09:18:09.149Z,3.86
2019-02-04T09:19:09.123Z,3.85
2019-02-04T09:20:10.348Z,3.88
2019-02-04T09:21:09.076Z,3.91
2019-02-04T09:22:09.054Z,3.78
2019-02-04T09:23:09.016Z,3.89
2019-02-04T09:24:08.988Z,3.82
2019-02-04T09:25:08.962Z,3.99
2019-02-04T09:26:08.938Z,3.89
2019-02-04T09:27:08.918Z,3.96
2019-02-04T09:28:08.889Z,3.82
2019-02-04T09:29:08.866Z,3.94
2019-02-04T09:30:08.838Z,4.02
2019-02-04T09:31:08.817Z,4.09
2019-02-04T09:32:08.778Z,4.18
2019-02-04T09:33:08.761Z,4.07
2019-02-04T09:34:08.729Z,4.09
2019-02-04T09:35:08.701Z,4.07
2019-02-04T09:36:08.676Z,4.12
2019-02-04T09:37:08.648Z,4.09
2019-02-04T09:38:08.633Z,4.12
2019-02-04T09:39:08.681Z,4.20
2019-02-04T09:40:08.570Z,4.16
2019-02-04T09:41:08.552Z,4.21
2019-02-04T09:42:08.529Z,4.12
2019-02-04T09:43:08.500Z,4.25
2019-02-04T09:44:08.467Z,4.22
2019-02-04T09:45:08.443Z,4.27
2019-02-04T09:46:08.433Z,4.27
2019-02-04T09:47:08.392Z,4.38
2019-02-04T09:48:08.365Z,4.34
2019-02-04T09:49:08.338Z,4.46
2019-02-04T09:50:08.320Z,4.63
2019-02-04T09:51:08.292Z,4.58
2019-02-04T09:52:08.264Z,4.64
2019-02-04T09:53:08.238Z,4.56
2019-02-04T09:54:08.228Z,4.57
2019-02-04T09:55:08.338Z,4.56
2019-02-04T09:56:08.160Z,4.61
2019-02-04T09:57:08.140Z,4.58
2019-02-04T09:58:08.109Z,4.58
2019-02-04T09:59:08.096Z,4.68
2019-02-04T10:00:08.060Z,4.78
2019-02-04T10:01:08.036Z,4.94
2019-02-04T10:02:08.008Z,4.86
2019-02-04T10:03:08.084Z,4.75
2019-02-04T10:04:07.956Z,4.82
2019-02-04T10:05:07.941Z,4.86
2019-02-04T10:06:07.909Z,4.74
2019-02-04T10:07:07.883Z,4.52
2019-02-04T10:08:07.858Z,4.57
2019-02-04T10:09:07.837Z,4.57
2019-02-04T10:10:07.807Z,4.56
2019-02-04T10:11:07.781Z,4.60
2019-02-04T10:12:07.756Z,4.48
2019-02-04T10:13:07.738Z,4.58
2019-02-04T10:14:07.723Z,4.64
2019-02-04T10:15:07.682Z,4.58
2019-02-04T10:16:07.693Z,4.63
2019-02-04T10:17:07.642Z,4.63
2019-02-04T10:18:07.611Z,4.64
2019-02-04T10:19:07.641Z,4.66
2019-02-04T10:20:07.555Z,4.67
2019-02-04T10:21:07.531Z,4.67
2019-02-04T10:22:07.507Z,4.75
2019-02-04T10:23:07.494Z,4.67
2019-02-04T10:24:07.538Z,4.68
2019-02-04T10:25:07.436Z,4.74
2019-02-04T10:26:07.470Z,4.76
2019-02-04T10:27:07.397Z,4.84
2019-02-04T10:28:07.398Z,4.98
2019-02-04T10:29:07.370Z,4.95
2019-02-04T10:30:07.324Z,4.97
2019-02-04T10:31:07.397Z,4.92
2019-02-04T10:32:07.288Z,4.84
2019-02-04T10:33:07.229Z,4.79
2019-02-04T10:34:07.212Z,5.08
2019-02-04T10:35:16.667Z,5.01
2019-02-04T10:36:07.166Z,5.08
2019-02-04T10:37:07.142Z,5.15
2019-02-04T10:38:07.113Z,5.08
2019-02-04T10:39:07.091Z,5.18
2019-02-04T10:40:07.065Z,5.08
2019-02-04T10:41:07.043Z,5.18
2019-02-04T10:42:07.047Z,5.20
2019-02-04T10:43:07.022Z,5.22
2019-02-04T10:44:06.988Z,5.23
2019-02-04T10:45:06.983Z,5.25
2019-02-04T10:46:06.963Z,5.19
2019-02-04T10:47:07.075Z,5.20
2019-02-04T10:48:06.914Z,5.25
2019-02-04T10:49:06.842Z,5.29
2019-02-04T10:50:06.814Z,5.28
2019-02-04T10:51:06.803Z,5.31
2019-02-04T10:52:06.779Z,5.38
2019-02-04T10:53:06.774Z,5.38
2019-02-04T10:54:06.708Z,5.31
2019-02-04T10:55:06.691Z,5.26
2019-02-04T10:56:06.699Z,5.28
2019-02-04T10:57:06.633Z,5.29
2019-02-04T10:58:06.654Z,5.40
2019-02-04T10:59:06.620Z,5.44
2019-02-04T11:00:06.575Z,5.55
2019-02-04T11:01:06.573Z,5.70
2019-02-04T11:02:06.516Z,5.69
2019-02-04T11:03:06.556Z,5.67
2019-02-04T11:04:06.462Z,5.49
2019-02-04T11:05:06.439Z,5.74
2019-02-04T11:06:06.436Z,5.81
2019-02-04T11:07:06.446Z,5.87
2019-02-04T11:08:06.397Z,6.05
2019-02-04T11:09:06.389Z,6.07
2019-02-04T11:10:06.371Z,6.16
2019-02-04T11:11:06.342Z,6.17
2019-02-04T11:12:06.268Z,6.29
2019-02-04T11:13:06.290Z,6.47
2019-02-04T11:14:06.239Z,6.46
2019-02-04T11:15:06.220Z,6.36
2019-02-04T11:16:06.204Z,6.41
2019-02-04T11:17:06.186Z,6.25
2019-02-04T11:18:06.183Z,6.26
2019-02-04T11:19:06.101Z,6.31
2019-02-04T11:20:06.076Z,6.15
2019-02-04T11:21:06.078Z,6.17
2019-02-04T11:22:06.057Z,6.15
2019-02-04T11:23:06.006Z,6.09
2019-02-04T11:24:06.003Z,5.98
2019-02-04T11:25:05.959Z,6.05
2019-02-04T11:26:06.072Z,5.81
2019-02-04T11:27:05.914Z,5.87
2019-02-04T11:28:05.933Z,6.06
2019-02-04T11:29:05.869Z,5.95
2019-02-04T11:30:05.862Z,6.05
2019-02-04T11:31:05.851Z,6.07
2019-02-04T11:32:05.864Z,6.09
2019-02-04T11:33:05.790Z,6.05
2019-02-04T11:34:05.778Z,6.06
2019-02-04T11:35:05.716Z,6.09
2019-02-04T11:36:05.692Z,6.12
2019-02-04T11:37:05.699Z,6.22
2019-02-04T11:38:05.680Z,6.10
2019-02-04T11:39:05.676Z,6.07
2019-02-04T11:40:05.597Z,5.99
2019-02-04T11:41:05.575Z,6.16
2019-02-04T11:42:05.551Z,6.13
2019-02-04T11:43:05.532Z,6.16
2019-02-04T11:44:05.509Z,6.15
2019-02-04T11:45:05.489Z,6.20
2019-02-04T11:46:05.470Z,6.22
2019-02-04T11:47:05.453Z,6.16
2019-02-04T11:48:05.421Z,6.15
2019-02-04T11:49:05.383Z,6.13
2019-02-04T11:50:05.369Z,6.26
2019-02-04T11:51:09.661Z,6.44
2019-02-04T11:52:05.311Z,6.41
2019-02-04T11:53:05.299Z,6.41
2019-02-04T11:54:05.268Z,6.49
2019-02-04T11:55:05.240Z,6.44
2019-02-04T11:56:05.216Z,6.31
2019-02-04T11:57:05.195Z,6.22
2019-02-04T11:58:07.724Z,6.20
2019-02-04T11:59:05.147Z,6.34
2019-02-04T12:00:05.129Z,6.39
2019-02-04T12:01:05.102Z,6.39
2019-02-04T12:02:05.085Z,6.50
2019-02-04T12:03:05.053Z,6.64
2019-02-04T12:04:05.036Z,6.62
2019-02-04T12:05:05.003Z,6.96
2019-02-04T12:06:04.984Z,6.95
2019-02-04T12:07:04.967Z,6.82
2019-02-04T12:08:04.932Z,6.77
2019-02-04T12:09:04.977Z,6.86
2019-02-04T12:10:04.901Z,6.77
2019-02-04T12:11:04.882Z,6.75
2019-02-04T12:12:04.839Z,6.74
2019-02-04T12:13:04.821Z,6.74
2019-02-04T12:14:04.791Z,6.64
2019-02-04T12:15:04.773Z,6.52
2019-02-04T12:16:04.747Z,6.49
2019-02-04T12:17:04.731Z,6.59
2019-02-04T12:18:04.704Z,6.60
2019-02-04T12:19:04.679Z,6.60
2019-02-04T12:20:04.652Z,6.53
2019-02-04T12:21:04.624Z,6.53
2019-02-04T12:22:04.604Z,6.43
2019-02-04T12:23:04.587Z,6.34
2019-02-04T12:24:04.555Z,6.43
2019-02-04T12:25:04.553Z,6.50
2019-02-04T12:26:04.505Z,6.44
2019-02-04T12:27:04.482Z,6.52
2019-02-04T12:28:04.477Z,6.46
2019-02-04T12:29:04.434Z,6.46
2019-02-04T12:30:04.411Z,6.43
2019-02-04T12:31:04.396Z,6.53
2019-02-04T12:32:04.370Z,6.53
2019-02-04T12:33:04.342Z,6.65
2019-02-04T12:34:04.324Z,6.56
2019-02-04T12:35:04.297Z,6.54
2019-02-04T12:36:04.270Z,6.54
2019-02-04T12:37:04.270Z,6.56
2019-02-04T12:38:04.221Z,6.68
2019-02-04T12:39:04.198Z,6.74
2019-02-04T12:40:04.184Z,6.82
2019-02-04T12:41:04.161Z,6.77
2019-02-04T12:42:04.126Z,6.78
2019-02-04T12:43:04.114Z,6.67
2019-02-04T12:44:04.078Z,6.60
2019-02-04T12:45:04.066Z,6.74
2019-02-04T12:46:04.033Z,6.62
2019-02-04T12:47:04.007Z,6.72
2019-02-04T12:48:03.997Z,6.80
2019-02-04T12:49:03.977Z,6.72
2019-02-04T12:50:03.934Z,6.62
2019-02-04T12:51:03.911Z,6.47
2019-02-04T12:52:03.886Z,6.43
2019-02-04T12:53:03.871Z,6.47
2019-02-04T12:54:03.840Z,6.47
2019-02-04T12:55:03.832Z,6.44
2019-02-04T12:56:03.810Z,6.43
2019-02-04T12:57:03.767Z,6.57
2019-02-04T12:58:03.746Z,6.62
2019-02-04T12:59:03.729Z,6.54
2019-02-04T13:00:03.698Z,6.44
2019-02-04T13:01:03.669Z,6.52
2019-02-04T13:02:03.648Z,6.44
2019-02-04T13:03:03.626Z,6.44
2019-02-04T13:04:03.600Z,6.38
2019-02-04T13:05:03.578Z,6.28
2019-02-04T13:06:03.558Z,6.34
2019-02-04T13:07:03.526Z,6.46
2019-02-04T13:08:03.502Z,6.53
2019-02-04T13:09:03.475Z,6.52
2019-02-04T13:10:03.476Z,6.44
2019-02-04T13:11:03.434Z,6.39
2019-02-04T13:12:03.407Z,6.44
2019-02-04T13:13:03.383Z,6.43
2019-02-04T13:14:03.366Z,6.38
2019-02-04T13:15:03.340Z,6.36
2019-02-04T13:16:03.308Z,6.29
2019-02-04T13:17:03.287Z,6.34
2019-02-04T13:18:03.271Z,6.39